sensor_id;sensor_type;location;lat;lon;timestamp;P1;durP1;ratioP1;P2;durP2;ratioP2
2766;SDS011;1391;46.742;11.636;2022-12-24T00:00:13;8.53;;;5.40;;
2766;SDS011;1391;46.742;11.636;2022-12-24T00:02:40;10.00;;;5.73;;
2766;SDS011;1391;46.742;11.636;2022-12-24T00:05:09;8.70;;;5.53;;
2766;SDS011;1391;46.742;11.636;2022-12-24T00:07:36;9.07;;;6.03;;
2766;SDS011;1391;46.742;11.636;2022-12-24T00:10:04;9.20;;;5.57;;
2766;SDS011;1391;46.742;11.636;2022-12-24T00:12:32;8.97;;;5.03;;
2766;SDS011;1391;46.742;11.636;2022-12-24T00:15:00;7.80;;;5.40;;
2766;SDS011;1391;46.742;11.636;2022-12-24T00:17:28;8.03;;;4.90;;
2766;SDS011;1391;46.742;11.636;2022-12-24T00:19:55;7.33;;;5.20;;
2766;SDS011;1391;46.742;11.636;2022-12-24T00:22:24;7.20;;;4.80;;
2766;SDS011;1391;46.742;11.636;2022-12-24T00:24:51;5.90;;;4.73;;
2766;SDS011;1391;46.742;11.636;2022-12-24T00:27:19;8.37;;;5.10;;
2766;SDS011;1391;46.742;11.636;2022-12-24T00:29:46;5.43;;;4.20;;
2766;SDS011;1391;46.742;11.636;2022-12-24T00:32:13;5.93;;;4.23;;
2766;SDS011;1391;46.742;11.636;2022-12-24T00:34:41;9.73;;;4.90;;
2766;SDS011;1391;46.742;11.636;2022-12-24T00:37:08;6.83;;;5.00;;
2766;SDS011;1391;46.742;11.636;2022-12-24T00:39:37;6.23;;;4.53;;
2766;SDS011;1391;46.742;11.636;2022-12-24T00:42:04;7.33;;;5.13;;
2766;SDS011;1391;46.742;11.636;2022-12-24T00:44:31;6.50;;;5.10;;
2766;SDS011;1391;46.742;11.636;2022-12-24T00:46:58;8.40;;;4.83;;
2766;SDS011;1391;46.742;11.636;2022-12-24T00:49:26;7.90;;;4.80;;
2766;SDS011;1391;46.742;11.636;2022-12-24T00:51:53;6.83;;;4.77;;
2766;SDS011;1391;46.742;11.636;2022-12-24T00:54:20;6.83;;;4.70;;
2766;SDS011;1391;46.742;11.636;2022-12-24T00:56:49;6.93;;;5.00;;
2766;SDS011;1391;46.742;11.636;2022-12-24T00:59:17;7.57;;;4.83;;
2766;SDS011;1391;46.742;11.636;2022-12-24T01:01:44;7.47;;;5.03;;
2766;SDS011;1391;46.742;11.636;2022-12-24T01:04:12;5.90;;;4.33;;
2766;SDS011;1391;46.742;11.636;2022-12-24T01:06:56;7.90;;;4.50;;
2766;SDS011;1391;46.742;11.636;2022-12-24T01:09:24;9.10;;;5.13;;
2766;SDS011;1391;46.742;11.636;2022-12-24T01:11:52;8.40;;;5.17;;
2766;SDS011;1391;46.742;11.636;2022-12-24T01:14:20;7.37;;;4.20;;
2766;SDS011;1391;46.742;11.636;2022-12-24T01:16:47;7.60;;;4.60;;
2766;SDS011;1391;46.742;11.636;2022-12-24T01:19:15;8.90;;;5.33;;
2766;SDS011;1391;46.742;11.636;2022-12-24T01:21:43;6.93;;;5.30;;
2766;SDS011;1391;46.742;11.636;2022-12-24T01:24:12;9.10;;;5.07;;
2766;SDS011;1391;46.742;11.636;2022-12-24T01:26:41;6.87;;;5.13;;
2766;SDS011;1391;46.742;11.636;2022-12-24T01:29:10;6.70;;;5.07;;
2766;SDS011;1391;46.742;11.636;2022-12-24T01:31:37;8.57;;;5.00;;
2766;SDS011;1391;46.742;11.636;2022-12-24T01:34:05;8.13;;;5.70;;
2766;SDS011;1391;46.742;11.636;2022-12-24T01:36:32;8.40;;;5.47;;
2766;SDS011;1391;46.742;11.636;2022-12-24T01:39:01;6.63;;;5.30;;
2766;SDS011;1391;46.742;11.636;2022-12-24T01:41:30;7.20;;;4.40;;
2766;SDS011;1391;46.742;11.636;2022-12-24T01:44:17;9.10;;;5.00;;
2766;SDS011;1391;46.742;11.636;2022-12-24T01:46:48;7.00;;;4.80;;
2766;SDS011;1391;46.742;11.636;2022-12-24T01:49:19;6.70;;;5.10;;
2766;SDS011;1391;46.742;11.636;2022-12-24T01:51:47;6.80;;;5.00;;
2766;SDS011;1391;46.742;11.636;2022-12-24T01:54:19;8.07;;;5.10;;
2766;SDS011;1391;46.742;11.636;2022-12-24T01:56:51;6.67;;;5.17;;
2766;SDS011;1391;46.742;11.636;2022-12-24T01:59:25;7.57;;;5.63;;
2766;SDS011;1391;46.742;11.636;2022-12-24T02:01:54;7.43;;;5.50;;
2766;SDS011;1391;46.742;11.636;2022-12-24T02:04:24;7.03;;;5.10;;
2766;SDS011;1391;46.742;11.636;2022-12-24T02:06:59;7.70;;;5.47;;
2766;SDS011;1391;46.742;11.636;2022-12-24T02:09:27;7.20;;;5.27;;
2766;SDS011;1391;46.742;11.636;2022-12-24T02:11:57;7.80;;;4.50;;
2766;SDS011;1391;46.742;11.636;2022-12-24T02:14:27;8.53;;;4.93;;
2766;SDS011;1391;46.742;11.636;2022-12-24T02:16:57;6.47;;;5.27;;
2766;SDS011;1391;46.742;11.636;2022-12-24T02:19:43;6.83;;;4.50;;
2766;SDS011;1391;46.742;11.636;2022-12-24T02:22:54;6.30;;;5.10;;
2766;SDS011;1391;46.742;11.636;2022-12-24T02:25:38;7.87;;;4.87;;
2766;SDS011;1391;46.742;11.636;2022-12-24T02:28:24;5.53;;;4.63;;
2766;SDS011;1391;46.742;11.636;2022-12-24T02:31:14;6.30;;;4.47;;
2766;SDS011;1391;46.742;11.636;2022-12-24T02:33:47;8.43;;;5.03;;
2766;SDS011;1391;46.742;11.636;2022-12-24T02:36:22;6.30;;;4.60;;
2766;SDS011;1391;46.742;11.636;2022-12-24T02:38:58;6.40;;;4.67;;
2766;SDS011;1391;46.742;11.636;2022-12-24T02:41:30;7.73;;;4.87;;
2766;SDS011;1391;46.742;11.636;2022-12-24T02:44:16;6.10;;;4.53;;
2766;SDS011;1391;46.742;11.636;2022-12-24T02:46:49;6.70;;;4.67;;
2766;SDS011;1391;46.742;11.636;2022-12-24T02:49:18;6.30;;;4.40;;
2766;SDS011;1391;46.742;11.636;2022-12-24T02:51:45;7.60;;;4.47;;
2766;SDS011;1391;46.742;11.636;2022-12-24T02:54:12;6.50;;;4.63;;
2766;SDS011;1391;46.742;11.636;2022-12-24T02:56:50;6.97;;;4.50;;
2766;SDS011;1391;46.742;11.636;2022-12-24T02:59:45;7.70;;;4.13;;
2766;SDS011;1391;46.742;11.636;2022-12-24T03:02:35;4.87;;;3.37;;
2766;SDS011;1391;46.742;11.636;2022-12-24T03:05:17;5.73;;;3.97;;
2766;SDS011;1391;46.742;11.636;2022-12-24T03:07:55;5.50;;;3.80;;
2766;SDS011;1391;46.742;11.636;2022-12-24T03:10:30;6.23;;;4.30;;
2766;SDS011;1391;46.742;11.636;2022-12-24T03:13:11;5.80;;;4.33;;
2766;SDS011;1391;46.742;11.636;2022-12-24T03:15:41;9.03;;;4.40;;
2766;SDS011;1391;46.742;11.636;2022-12-24T03:18:13;5.37;;;4.20;;
2766;SDS011;1391;46.742;11.636;2022-12-24T03:20:45;5.37;;;4.13;;
2766;SDS011;1391;46.742;11.636;2022-12-24T03:23:20;6.63;;;4.30;;
2766;SDS011;1391;46.742;11.636;2022-12-24T03:25:49;6.23;;;4.27;;
2766;SDS011;1391;46.742;11.636;2022-12-24T03:28:17;6.47;;;4.40;;
2766;SDS011;1391;46.742;11.636;2022-12-24T03:30:50;6.07;;;4.63;;
2766;SDS011;1391;46.742;11.636;2022-12-24T03:33:22;6.90;;;4.77;;
2766;SDS011;1391;46.742;11.636;2022-12-24T03:35:49;5.43;;;4.20;;
2766;SDS011;1391;46.742;11.636;2022-12-24T03:38:17;5.77;;;4.33;;
2766;SDS011;1391;46.742;11.636;2022-12-24T03:40:44;6.40;;;4.40;;
2766;SDS011;1391;46.742;11.636;2022-12-24T03:43:11;5.00;;;4.23;;
2766;SDS011;1391;46.742;11.636;2022-12-24T03:45:40;5.37;;;4.40;;
2766;SDS011;1391;46.742;11.636;2022-12-24T03:48:07;5.30;;;4.20;;
2766;SDS011;1391;46.742;11.636;2022-12-24T03:50:36;7.23;;;5.00;;
2766;SDS011;1391;46.742;11.636;2022-12-24T03:53:03;7.27;;;5.07;;
2766;SDS011;1391;46.742;11.636;2022-12-24T03:55:31;7.50;;;5.40;;
2766;SDS011;1391;46.742;11.636;2022-12-24T03:57:58;10.27;;;6.00;;
2766;SDS011;1391;46.742;11.636;2022-12-24T04:00:26;10.40;;;6.30;;
2766;SDS011;1391;46.742;11.636;2022-12-24T04:02:53;22.53;;;12.90;;
2766;SDS011;1391;46.742;11.636;2022-12-24T04:05:21;11.50;;;8.43;;
2766;SDS011;1391;46.742;11.636;2022-12-24T04:07:49;10.70;;;6.40;;
2766;SDS011;1391;46.742;11.636;2022-12-24T04:10:17;9.07;;;6.53;;
2766;SDS011;1391;46.742;11.636;2022-12-24T04:12:44;9.80;;;5.80;;
2766;SDS011;1391;46.742;11.636;2022-12-24T04:15:12;10.97;;;6.70;;
2766;SDS011;1391;46.742;11.636;2022-12-24T04:17:39;9.53;;;5.93;;
2766;SDS011;1391;46.742;11.636;2022-12-24T04:20:07;10.97;;;5.87;;
2766;SDS011;1391;46.742;11.636;2022-12-24T04:22:35;11.13;;;6.03;;
2766;SDS011;1391;46.742;11.636;2022-12-24T04:25:04;11.30;;;6.20;;
2766;SDS011;1391;46.742;11.636;2022-12-24T04:27:34;14.77;;;6.30;;
2766;SDS011;1391;46.742;11.636;2022-12-24T04:30:02;12.83;;;6.80;;
2766;SDS011;1391;46.742;11.636;2022-12-24T04:32:32;20.80;;;8.10;;
2766;SDS011;1391;46.742;11.636;2022-12-24T04:34:59;9.63;;;6.43;;
2766;SDS011;1391;46.742;11.636;2022-12-24T04:37:26;10.00;;;6.57;;
2766;SDS011;1391;46.742;11.636;2022-12-24T04:39:53;9.90;;;6.87;;
2766;SDS011;1391;46.742;11.636;2022-12-24T04:42:22;10.03;;;6.50;;
2766;SDS011;1391;46.742;11.636;2022-12-24T04:44:49;9.10;;;6.30;;
2766;SDS011;1391;46.742;11.636;2022-12-24T04:47:17;11.87;;;6.20;;
2766;SDS011;1391;46.742;11.636;2022-12-24T04:49:46;9.80;;;5.53;;
2766;SDS011;1391;46.742;11.636;2022-12-24T04:52:14;6.90;;;5.13;;
2766;SDS011;1391;46.742;11.636;2022-12-24T04:54:42;8.17;;;5.63;;
2766;SDS011;1391;46.742;11.636;2022-12-24T04:57:10;6.53;;;5.10;;
2766;SDS011;1391;46.742;11.636;2022-12-24T04:59:39;7.40;;;4.60;;
2766;SDS011;1391;46.742;11.636;2022-12-24T05:02:06;7.97;;;5.03;;
2766;SDS011;1391;46.742;11.636;2022-12-24T05:04:33;7.77;;;4.57;;
2766;SDS011;1391;46.742;11.636;2022-12-24T05:07:00;6.53;;;4.33;;
2766;SDS011;1391;46.742;11.636;2022-12-24T05:09:28;7.73;;;4.27;;
2766;SDS011;1391;46.742;11.636;2022-12-24T05:11:55;5.03;;;4.10;;
2766;SDS011;1391;46.742;11.636;2022-12-24T05:14:23;6.27;;;4.57;;
2766;SDS011;1391;46.742;11.636;2022-12-24T05:16:51;9.27;;;5.17;;
2766;SDS011;1391;46.742;11.636;2022-12-24T05:19:19;6.30;;;4.60;;
2766;SDS011;1391;46.742;11.636;2022-12-24T05:21:46;5.73;;;4.30;;
2766;SDS011;1391;46.742;11.636;2022-12-24T05:24:33;6.47;;;5.03;;
2766;SDS011;1391;46.742;11.636;2022-12-24T05:27:18;5.57;;;4.47;;
2766;SDS011;1391;46.742;11.636;2022-12-24T05:29:45;6.70;;;4.33;;
2766;SDS011;1391;46.742;11.636;2022-12-24T05:32:14;7.53;;;4.40;;
2766;SDS011;1391;46.742;11.636;2022-12-24T05:34:41;6.17;;;4.73;;
2766;SDS011;1391;46.742;11.636;2022-12-24T05:37:08;5.77;;;4.23;;
2766;SDS011;1391;46.742;11.636;2022-12-24T05:39:36;6.73;;;4.63;;
2766;SDS011;1391;46.742;11.636;2022-12-24T05:42:03;5.93;;;4.50;;
2766;SDS011;1391;46.742;11.636;2022-12-24T05:44:31;6.87;;;4.83;;
2766;SDS011;1391;46.742;11.636;2022-12-24T05:46:59;6.00;;;3.93;;
2766;SDS011;1391;46.742;11.636;2022-12-24T05:49:28;6.23;;;4.53;;
2766;SDS011;1391;46.742;11.636;2022-12-24T05:51:55;7.30;;;4.90;;
2766;SDS011;1391;46.742;11.636;2022-12-24T05:54:23;6.37;;;4.57;;
2766;SDS011;1391;46.742;11.636;2022-12-24T05:56:50;5.77;;;4.10;;
2766;SDS011;1391;46.742;11.636;2022-12-24T05:59:17;6.10;;;4.70;;
2766;SDS011;1391;46.742;11.636;2022-12-24T06:01:44;7.67;;;5.10;;
2766;SDS011;1391;46.742;11.636;2022-12-24T06:04:12;6.67;;;4.63;;
2766;SDS011;1391;46.742;11.636;2022-12-24T06:06:41;8.13;;;5.10;;
2766;SDS011;1391;46.742;11.636;2022-12-24T06:09:08;8.00;;;5.30;;
2766;SDS011;1391;46.742;11.636;2022-12-24T06:11:35;8.57;;;5.53;;
2766;SDS011;1391;46.742;11.636;2022-12-24T06:14:03;8.17;;;5.67;;
2766;SDS011;1391;46.742;11.636;2022-12-24T06:16:30;9.83;;;5.27;;
2766;SDS011;1391;46.742;11.636;2022-12-24T06:18:57;10.37;;;6.40;;
2766;SDS011;1391;46.742;11.636;2022-12-24T06:21:24;12.33;;;6.77;;
2766;SDS011;1391;46.742;11.636;2022-12-24T06:23:53;17.37;;;7.03;;
2766;SDS011;1391;46.742;11.636;2022-12-24T06:26:23;8.93;;;6.40;;
2766;SDS011;1391;46.742;11.636;2022-12-24T06:28:50;10.97;;;6.80;;
2766;SDS011;1391;46.742;11.636;2022-12-24T06:31:19;52.33;;;8.70;;
2766;SDS011;1391;46.742;11.636;2022-12-24T06:33:48;22.73;;;6.97;;
2766;SDS011;1391;46.742;11.636;2022-12-24T06:36:17;22.43;;;6.37;;
2766;SDS011;1391;46.742;11.636;2022-12-24T06:38:46;24.80;;;5.67;;
2766;SDS011;1391;46.742;11.636;2022-12-24T06:41:16;17.50;;;6.30;;
2766;SDS011;1391;46.742;11.636;2022-12-24T06:43:44;9.90;;;5.93;;
2766;SDS011;1391;46.742;11.636;2022-12-24T06:46:14;8.60;;;5.47;;
2766;SDS011;1391;46.742;11.636;2022-12-24T06:48:42;10.70;;;5.33;;
2766;SDS011;1391;46.742;11.636;2022-12-24T06:51:10;7.83;;;4.60;;
2766;SDS011;1391;46.742;11.636;2022-12-24T06:53:38;6.30;;;4.77;;
2766;SDS011;1391;46.742;11.636;2022-12-24T06:56:07;8.67;;;4.73;;
2766;SDS011;1391;46.742;11.636;2022-12-24T06:58:38;8.27;;;5.03;;
2766;SDS011;1391;46.742;11.636;2022-12-24T07:01:07;10.97;;;5.80;;
2766;SDS011;1391;46.742;11.636;2022-12-24T07:03:37;8.07;;;5.20;;
2766;SDS011;1391;46.742;11.636;2022-12-24T07:06:05;8.90;;;5.17;;
2766;SDS011;1391;46.742;11.636;2022-12-24T07:08:33;7.40;;;5.33;;
2766;SDS011;1391;46.742;11.636;2022-12-24T07:11:00;8.20;;;5.37;;
2766;SDS011;1391;46.742;11.636;2022-12-24T07:13:28;16.93;;;6.57;;
2766;SDS011;1391;46.742;11.636;2022-12-24T07:15:58;46.53;;;12.13;;
2766;SDS011;1391;46.742;11.636;2022-12-24T07:18:26;20.33;;;6.50;;
2766;SDS011;1391;46.742;11.636;2022-12-24T07:20:53;21.17;;;6.30;;
2766;SDS011;1391;46.742;11.636;2022-12-24T07:23:21;14.67;;;6.33;;
2766;SDS011;1391;46.742;11.636;2022-12-24T07:25:49;15.23;;;8.63;;
2766;SDS011;1391;46.742;11.636;2022-12-24T07:28:16;18.13;;;8.73;;
2766;SDS011;1391;46.742;11.636;2022-12-24T07:30:44;15.50;;;8.33;;
2766;SDS011;1391;46.742;11.636;2022-12-24T07:33:15;20.07;;;10.13;;
2766;SDS011;1391;46.742;11.636;2022-12-24T07:35:42;16.40;;;10.60;;
2766;SDS011;1391;46.742;11.636;2022-12-24T07:38:10;18.63;;;9.63;;
2766;SDS011;1391;46.742;11.636;2022-12-24T07:40:37;21.33;;;11.53;;
2766;SDS011;1391;46.742;11.636;2022-12-24T07:43:04;18.03;;;8.70;;
2766;SDS011;1391;46.742;11.636;2022-12-24T07:45:32;18.73;;;9.20;;
2766;SDS011;1391;46.742;11.636;2022-12-24T07:47:59;22.13;;;9.20;;
2766;SDS011;1391;46.742;11.636;2022-12-24T07:50:28;18.13;;;8.47;;
2766;SDS011;1391;46.742;11.636;2022-12-24T07:52:55;12.73;;;7.97;;
2766;SDS011;1391;46.742;11.636;2022-12-24T07:55:22;41.67;;;10.40;;
2766;SDS011;1391;46.742;11.636;2022-12-24T07:57:50;40.53;;;7.97;;
2766;SDS011;1391;46.742;11.636;2022-12-24T08:00:17;48.73;;;8.83;;
2766;SDS011;1391;46.742;11.636;2022-12-24T08:02:46;80.63;;;9.47;;
2766;SDS011;1391;46.742;11.636;2022-12-24T08:05:15;15.97;;;7.13;;
2766;SDS011;1391;46.742;11.636;2022-12-24T08:07:44;64.53;;;11.23;;
2766;SDS011;1391;46.742;11.636;2022-12-24T08:10:11;21.60;;;7.83;;
2766;SDS011;1391;46.742;11.636;2022-12-24T08:12:38;36.40;;;10.97;;
2766;SDS011;1391;46.742;11.636;2022-12-24T08:15:06;21.97;;;6.93;;
2766;SDS011;1391;46.742;11.636;2022-12-24T08:17:36;41.23;;;9.43;;
2766;SDS011;1391;46.742;11.636;2022-12-24T08:20:03;24.57;;;6.90;;
2766;SDS011;1391;46.742;11.636;2022-12-24T08:22:32;47.50;;;9.30;;
2766;SDS011;1391;46.742;11.636;2022-12-24T08:25:01;10.87;;;7.30;;
2766;SDS011;1391;46.742;11.636;2022-12-24T08:27:29;10.13;;;6.97;;
2766;SDS011;1391;46.742;11.636;2022-12-24T08:29:56;8.53;;;6.57;;
2766;SDS011;1391;46.742;11.636;2022-12-24T08:32:23;9.90;;;6.70;;
2766;SDS011;1391;46.742;11.636;2022-12-24T08:34:51;8.90;;;6.30;;
2766;SDS011;1391;46.742;11.636;2022-12-24T08:37:18;10.40;;;7.67;;
2766;SDS011;1391;46.742;11.636;2022-12-24T08:39:45;10.80;;;6.63;;
2766;SDS011;1391;46.742;11.636;2022-12-24T08:42:14;12.90;;;8.53;;
2766;SDS011;1391;46.742;11.636;2022-12-24T08:44:41;14.90;;;9.73;;
2766;SDS011;1391;46.742;11.636;2022-12-24T08:47:08;15.97;;;9.07;;
2766;SDS011;1391;46.742;11.636;2022-12-24T08:49:36;11.47;;;8.83;;
2766;SDS011;1391;46.742;11.636;2022-12-24T08:52:04;12.20;;;8.80;;
2766;SDS011;1391;46.742;11.636;2022-12-24T08:54:32;12.33;;;9.27;;
2766;SDS011;1391;46.742;11.636;2022-12-24T08:56:59;15.27;;;9.40;;
2766;SDS011;1391;46.742;11.636;2022-12-24T08:59:28;16.63;;;10.97;;
2766;SDS011;1391;46.742;11.636;2022-12-24T09:01:56;16.10;;;10.57;;
2766;SDS011;1391;46.742;11.636;2022-12-24T09:04:23;12.50;;;9.57;;
2766;SDS011;1391;46.742;11.636;2022-12-24T09:06:50;14.47;;;9.87;;
2766;SDS011;1391;46.742;11.636;2022-12-24T09:09:17;15.10;;;9.67;;
2766;SDS011;1391;46.742;11.636;2022-12-24T09:11:45;13.23;;;9.20;;
2766;SDS011;1391;46.742;11.636;2022-12-24T09:14:12;10.70;;;8.20;;
2766;SDS011;1391;46.742;11.636;2022-12-24T09:16:40;11.47;;;8.30;;
2766;SDS011;1391;46.742;11.636;2022-12-24T09:19:08;12.57;;;8.23;;
2766;SDS011;1391;46.742;11.636;2022-12-24T09:21:35;13.93;;;8.60;;
2766;SDS011;1391;46.742;11.636;2022-12-24T09:24:02;12.13;;;8.87;;
2766;SDS011;1391;46.742;11.636;2022-12-24T09:26:30;13.57;;;9.37;;
2766;SDS011;1391;46.742;11.636;2022-12-24T09:28:58;13.13;;;8.40;;
2766;SDS011;1391;46.742;11.636;2022-12-24T09:31:26;10.27;;;7.30;;
2766;SDS011;1391;46.742;11.636;2022-12-24T09:33:55;11.30;;;7.70;;
2766;SDS011;1391;46.742;11.636;2022-12-24T09:36:22;11.13;;;7.07;;
2766;SDS011;1391;46.742;11.636;2022-12-24T09:38:49;11.80;;;7.47;;
2766;SDS011;1391;46.742;11.636;2022-12-24T09:41:21;11.10;;;8.30;;
2766;SDS011;1391;46.742;11.636;2022-12-24T09:44:04;11.20;;;7.83;;
2766;SDS011;1391;46.742;11.636;2022-12-24T09:46:57;9.67;;;7.27;;
2766;SDS011;1391;46.742;11.636;2022-12-24T09:49:33;7.93;;;5.70;;
2766;SDS011;1391;46.742;11.636;2022-12-24T09:52:06;9.77;;;6.00;;
2766;SDS011;1391;46.742;11.636;2022-12-24T09:54:37;16.03;;;7.33;;
2766;SDS011;1391;46.742;11.636;2022-12-24T09:57:12;8.03;;;5.83;;
2766;SDS011;1391;46.742;11.636;2022-12-24T09:59:51;6.73;;;5.10;;
2766;SDS011;1391;46.742;11.636;2022-12-24T10:02:18;6.40;;;4.80;;
2766;SDS011;1391;46.742;11.636;2022-12-24T10:04:47;8.60;;;5.47;;
2766;SDS011;1391;46.742;11.636;2022-12-24T10:07:19;9.17;;;6.73;;
2766;SDS011;1391;46.742;11.636;2022-12-24T10:10:01;4.57;;;3.50;;
2766;SDS011;1391;46.742;11.636;2022-12-24T10:12:40;6.97;;;4.00;;
2766;SDS011;1391;46.742;11.636;2022-12-24T10:15:18;4.77;;;3.30;;
2766;SDS011;1391;46.742;11.636;2022-12-24T10:17:57;5.33;;;3.73;;
2766;SDS011;1391;46.742;11.636;2022-12-24T10:20:48;3.50;;;3.20;;
2766;SDS011;1391;46.742;11.636;2022-12-24T10:23:22;3.97;;;3.07;;
2766;SDS011;1391;46.742;11.636;2022-12-24T10:25:57;4.93;;;3.50;;
2766;SDS011;1391;46.742;11.636;2022-12-24T10:28:37;4.30;;;2.80;;
2766;SDS011;1391;46.742;11.636;2022-12-24T10:31:13;6.20;;;3.17;;
2766;SDS011;1391;46.742;11.636;2022-12-24T10:33:41;3.27;;;2.90;;
2766;SDS011;1391;46.742;11.636;2022-12-24T10:36:14;3.90;;;3.20;;
2766;SDS011;1391;46.742;11.636;2022-12-24T10:38:43;3.30;;;3.00;;
2766;SDS011;1391;46.742;11.636;2022-12-24T10:41:11;3.97;;;2.60;;
2766;SDS011;1391;46.742;11.636;2022-12-24T10:43:40;3.83;;;2.43;;
2766;SDS011;1391;46.742;11.636;2022-12-24T10:46:13;4.10;;;2.93;;
2766;SDS011;1391;46.742;11.636;2022-12-24T10:48:48;2.13;;;1.90;;
2766;SDS011;1391;46.742;11.636;2022-12-24T10:51:23;2.27;;;2.07;;
2766;SDS011;1391;46.742;11.636;2022-12-24T10:53:59;1.53;;;1.43;;
2766;SDS011;1391;46.742;11.636;2022-12-24T10:56:37;2.47;;;1.77;;
2766;SDS011;1391;46.742;11.636;2022-12-24T10:59:09;2.07;;;1.90;;
2766;SDS011;1391;46.742;11.636;2022-12-24T11:01:51;2.57;;;1.87;;
2766;SDS011;1391;46.742;11.636;2022-12-24T11:04:20;3.07;;;2.20;;
2766;SDS011;1391;46.742;11.636;2022-12-24T11:06:58;2.20;;;2.00;;
2766;SDS011;1391;46.742;11.636;2022-12-24T11:12:33;19.60;;;12.50;;
2766;SDS011;1391;46.742;11.636;2022-12-24T11:15:05;14.10;;;9.90;;
2766;SDS011;1391;46.742;11.636;2022-12-24T11:17:41;8.57;;;5.57;;
2766;SDS011;1391;46.742;11.636;2022-12-24T11:20:19;7.30;;;6.23;;
2766;SDS011;1391;46.742;11.636;2022-12-24T11:22:53;4.40;;;3.77;;
2766;SDS011;1391;46.742;11.636;2022-12-24T11:25:22;4.87;;;3.00;;
2766;SDS011;1391;46.742;11.636;2022-12-24T11:27:53;2.60;;;2.40;;
2766;SDS011;1391;46.742;11.636;2022-12-24T11:30:30;2.30;;;2.10;;
2766;SDS011;1391;46.742;11.636;2022-12-24T11:33:26;3.00;;;2.33;;
2766;SDS011;1391;46.742;11.636;2022-12-24T11:36:02;5.07;;;3.20;;
2766;SDS011;1391;46.742;11.636;2022-12-24T11:38:33;3.03;;;2.40;;
2766;SDS011;1391;46.742;11.636;2022-12-24T11:41:05;1.70;;;1.60;;
2766;SDS011;1391;46.742;11.636;2022-12-24T11:43:36;2.20;;;2.00;;
2766;SDS011;1391;46.742;11.636;2022-12-24T11:46:16;2.30;;;2.10;;
2766;SDS011;1391;46.742;11.636;2022-12-24T11:49:12;4.93;;;4.40;;
2766;SDS011;1391;46.742;11.636;2022-12-24T11:54:56;9.07;;;6.10;;
2766;SDS011;1391;46.742;11.636;2022-12-24T11:57:49;16.67;;;10.97;;
2766;SDS011;1391;46.742;11.636;2022-12-24T12:00:23;40.13;;;21.83;;
2766;SDS011;1391;46.742;11.636;2022-12-24T12:02:52;101.10;;;48.40;;
2766;SDS011;1391;46.742;11.636;2022-12-24T12:05:24;88.23;;;44.97;;
2766;SDS011;1391;46.742;11.636;2022-12-24T12:07:55;51.17;;;30.83;;
2766;SDS011;1391;46.742;11.636;2022-12-24T12:10:37;18.73;;;12.97;;
2766;SDS011;1391;46.742;11.636;2022-12-24T12:13:09;12.53;;;8.87;;
2766;SDS011;1391;46.742;11.636;2022-12-24T12:15:39;7.07;;;6.37;;
2766;SDS011;1391;46.742;11.636;2022-12-24T12:18:11;8.00;;;6.20;;
2766;SDS011;1391;46.742;11.636;2022-12-24T12:20:41;9.43;;;7.30;;
2766;SDS011;1391;46.742;11.636;2022-12-24T12:23:13;8.17;;;7.37;;
2766;SDS011;1391;46.742;11.636;2022-12-24T12:25:46;7.60;;;6.23;;
2766;SDS011;1391;46.742;11.636;2022-12-24T12:28:21;21.13;;;12.43;;
2766;SDS011;1391;46.742;11.636;2022-12-24T12:30:54;18.53;;;11.97;;
2766;SDS011;1391;46.742;11.636;2022-12-24T12:33:30;14.40;;;11.13;;
2766;SDS011;1391;46.742;11.636;2022-12-24T12:36:04;8.13;;;5.50;;
2766;SDS011;1391;46.742;11.636;2022-12-24T12:38:34;5.73;;;5.00;;
2766;SDS011;1391;46.742;11.636;2022-12-24T12:41:10;5.03;;;3.63;;
2766;SDS011;1391;46.742;11.636;2022-12-24T12:44:13;4.10;;;3.07;;
2766;SDS011;1391;46.742;11.636;2022-12-24T12:46:58;3.23;;;2.80;;
2766;SDS011;1391;46.742;11.636;2022-12-24T12:49:42;4.80;;;4.30;;
2766;SDS011;1391;46.742;11.636;2022-12-24T12:52:19;2.40;;;1.93;;
2766;SDS011;1391;46.742;11.636;2022-12-24T12:55:21;5.30;;;3.70;;
2766;SDS011;1391;46.742;11.636;2022-12-24T12:58:02;1.50;;;1.40;;
2766;SDS011;1391;46.742;11.636;2022-12-24T13:00:37;1.37;;;1.27;;
2766;SDS011;1391;46.742;11.636;2022-12-24T13:03:23;11.90;;;8.53;;
2766;SDS011;1391;46.742;11.636;2022-12-24T13:09:23;14.03;;;8.97;;
2766;SDS011;1391;46.742;11.636;2022-12-24T13:12:39;19.00;;;11.23;;
2766;SDS011;1391;46.742;11.636;2022-12-24T13:15:28;19.27;;;10.80;;
2766;SDS011;1391;46.742;11.636;2022-12-24T13:18:20;10.57;;;6.10;;
2766;SDS011;1391;46.742;11.636;2022-12-24T13:20:59;3.90;;;3.23;;
2766;SDS011;1391;46.742;11.636;2022-12-24T13:23:27;2.73;;;2.27;;
2766;SDS011;1391;46.742;11.636;2022-12-24T13:25:55;5.13;;;3.60;;
2766;SDS011;1391;46.742;11.636;2022-12-24T13:28:30;7.80;;;4.97;;
2766;SDS011;1391;46.742;11.636;2022-12-24T13:33:54;5.53;;;3.73;;
2766;SDS011;1391;46.742;11.636;2022-12-24T13:42:49;1.73;;;1.50;;
2766;SDS011;1391;46.742;11.636;2022-12-24T13:48:17;2.27;;;2.07;;
2766;SDS011;1391;46.742;11.636;2022-12-24T13:50:57;8.83;;;5.03;;
2766;SDS011;1391;46.742;11.636;2022-12-24T13:53:29;15.40;;;6.47;;
2766;SDS011;1391;46.742;11.636;2022-12-24T13:56:02;5.87;;;3.53;;
2766;SDS011;1391;46.742;11.636;2022-12-24T13:58:35;4.23;;;2.97;;
2766;SDS011;1391;46.742;11.636;2022-12-24T14:01:07;3.67;;;2.67;;
2766;SDS011;1391;46.742;11.636;2022-12-24T14:03:42;3.73;;;2.87;;
2766;SDS011;1391;46.742;11.636;2022-12-24T14:06:12;7.57;;;3.83;;
2766;SDS011;1391;46.742;11.636;2022-12-24T14:08:49;3.03;;;2.63;;
2766;SDS011;1391;46.742;11.636;2022-12-24T14:11:19;4.50;;;3.10;;
2766;SDS011;1391;46.742;11.636;2022-12-24T14:13:52;6.27;;;5.00;;
2766;SDS011;1391;46.742;11.636;2022-12-24T14:16:45;7.10;;;6.30;;
2766;SDS011;1391;46.742;11.636;2022-12-24T14:19:17;4.77;;;4.27;;
2766;SDS011;1391;46.742;11.636;2022-12-24T14:21:52;5.37;;;4.00;;
2766;SDS011;1391;46.742;11.636;2022-12-24T14:24:25;4.50;;;3.70;;
2766;SDS011;1391;46.742;11.636;2022-12-24T14:26:59;5.97;;;3.90;;
2766;SDS011;1391;46.742;11.636;2022-12-24T14:29:40;17.53;;;8.83;;
2766;SDS011;1391;46.742;11.636;2022-12-24T14:32:15;8.00;;;5.00;;
2766;SDS011;1391;46.742;11.636;2022-12-24T14:34:44;5.27;;;3.77;;
2766;SDS011;1391;46.742;11.636;2022-12-24T14:37:11;2.80;;;2.60;;
2766;SDS011;1391;46.742;11.636;2022-12-24T14:39:40;3.30;;;3.00;;
2766;SDS011;1391;46.742;11.636;2022-12-24T14:42:17;8.17;;;5.47;;
2766;SDS011;1391;46.742;11.636;2022-12-24T14:44:59;5.97;;;4.70;;
2766;SDS011;1391;46.742;11.636;2022-12-24T14:47:39;7.47;;;5.30;;
2766;SDS011;1391;46.742;11.636;2022-12-24T14:53:20;4.17;;;3.23;;
2766;SDS011;1391;46.742;11.636;2022-12-24T14:55:56;6.77;;;4.67;;
2766;SDS011;1391;46.742;11.636;2022-12-24T14:58:25;5.50;;;3.70;;
2766;SDS011;1391;46.742;11.636;2022-12-24T15:00:55;5.00;;;4.20;;
2766;SDS011;1391;46.742;11.636;2022-12-24T15:03:25;5.00;;;3.97;;
2766;SDS011;1391;46.742;11.636;2022-12-24T15:05:56;6.13;;;4.90;;
2766;SDS011;1391;46.742;11.636;2022-12-24T15:08:27;10.60;;;7.50;;
2766;SDS011;1391;46.742;11.636;2022-12-24T15:10:58;26.60;;;14.77;;
2766;SDS011;1391;46.742;11.636;2022-12-24T15:13:30;5.90;;;4.47;;
2766;SDS011;1391;46.742;11.636;2022-12-24T15:16:02;4.23;;;3.27;;
2766;SDS011;1391;46.742;11.636;2022-12-24T15:18:32;5.57;;;4.70;;
2766;SDS011;1391;46.742;11.636;2022-12-24T15:21:04;10.07;;;7.13;;
2766;SDS011;1391;46.742;11.636;2022-12-24T15:23:34;7.40;;;5.00;;
2766;SDS011;1391;46.742;11.636;2022-12-24T15:26:07;7.23;;;5.53;;
2766;SDS011;1391;46.742;11.636;2022-12-24T15:28:43;13.03;;;7.47;;
2766;SDS011;1391;46.742;11.636;2022-12-24T15:31:11;6.37;;;4.77;;
2766;SDS011;1391;46.742;11.636;2022-12-24T15:33:42;7.10;;;5.30;;
2766;SDS011;1391;46.742;11.636;2022-12-24T15:36:12;21.00;;;14.00;;
2766;SDS011;1391;46.742;11.636;2022-12-24T15:38:41;35.57;;;18.37;;
2766;SDS011;1391;46.742;11.636;2022-12-24T15:41:15;30.97;;;17.23;;
2766;SDS011;1391;46.742;11.636;2022-12-24T15:43:46;25.57;;;14.90;;
2766;SDS011;1391;46.742;11.636;2022-12-24T15:46:16;35.50;;;19.53;;